sensor_id;sensor_type;location;lat;lon;timestamp;P1;durP1;ratioP1;P2;durP2;ratioP2
22284;SDS011;11311;52.192;20.900;2022-09-09T00:00:24;12.43;;;6.78;;
22284;SDS011;11311;52.192;20.900;2022-09-09T00:02:58;18.70;;;7.20;;
22284;SDS011;11311;52.192;20.900;2022-09-09T00:05:36;7.90;;;5.78;;
22284;SDS011;11311;52.192;20.900;2022-09-09T00:08:07;12.55;;;6.50;;
22284;SDS011;11311;52.192;20.900;2022-09-09T00:10:45;13.00;;;6.38;;
22284;SDS011;11311;52.192;20.900;2022-09-09T00:13:19;12.82;;;7.28;;
22284;SDS011;11311;52.192;20.900;2022-09-09T00:15:54;10.27;;;6.88;;
22284;SDS011;11311;52.192;20.900;2022-09-09T00:18:28;10.90;;;6.75;;
22284;SDS011;11311;52.192;20.900;2022-09-09T00:21:02;15.43;;;7.53;;
22284;SDS011;11311;52.192;20.900;2022-09-09T00:23:35;13.25;;;9.25;;
22284;SDS011;11311;52.192;20.900;2022-09-09T00:26:09;13.15;;;8.63;;
22284;SDS011;11311;52.192;20.900;2022-09-09T00:28:50;12.93;;;7.85;;
22284;SDS011;11311;52.192;20.900;2022-09-09T00:31:24;11.88;;;7.55;;
22284;SDS011;11311;52.192;20.900;2022-09-09T00:33:58;16.33;;;8.45;;
22284;SDS011;11311;52.192;20.900;2022-09-09T00:36:29;12.30;;;8.10;;
22284;SDS011;11311;52.192;20.900;2022-09-09T00:39:00;17.73;;;9.60;;
22284;SDS011;11311;52.192;20.900;2022-09-09T00:44:03;13.75;;;7.72;;
22284;SDS011;11311;52.192;20.900;2022-09-09T00:46:41;13.35;;;8.63;;
22284;SDS011;11311;52.192;20.900;2022-09-09T00:49:26;13.40;;;8.50;;
22284;SDS011;11311;52.192;20.900;2022-09-09T00:52:05;13.02;;;8.98;;
22284;SDS011;11311;52.192;20.900;2022-09-09T00:54:44;13.25;;;9.80;;
22284;SDS011;11311;52.192;20.900;2022-09-09T00:57:21;19.08;;;9.45;;
22284;SDS011;11311;52.192;20.900;2022-09-09T00:59:52;13.35;;;9.50;;
22284;SDS011;11311;52.192;20.900;2022-09-09T01:02:26;14.45;;;9.23;;
22284;SDS011;11311;52.192;20.900;2022-09-09T01:05:00;18.33;;;10.05;;
22284;SDS011;11311;52.192;20.900;2022-09-09T01:07:32;16.13;;;9.85;;
22284;SDS011;11311;52.192;20.900;2022-09-09T01:10:03;15.65;;;8.77;;
22284;SDS011;11311;52.192;20.900;2022-09-09T01:12:34;14.25;;;10.05;;
22284;SDS011;11311;52.192;20.900;2022-09-09T01:15:11;17.42;;;10.63;;
22284;SDS011;11311;52.192;20.900;2022-09-09T01:17:53;14.45;;;9.57;;
22284;SDS011;11311;52.192;20.900;2022-09-09T01:20:31;18.20;;;9.40;;
22284;SDS011;11311;52.192;20.900;2022-09-09T01:23:16;15.52;;;9.82;;
22284;SDS011;11311;52.192;20.900;2022-09-09T01:26:22;18.30;;;10.65;;
22284;SDS011;11311;52.192;20.900;2022-09-09T01:28:58;16.58;;;10.80;;
22284;SDS011;11311;52.192;20.900;2022-09-09T01:31:36;13.25;;;9.98;;
22284;SDS011;11311;52.192;20.900;2022-09-09T01:34:08;16.00;;;10.27;;
22284;SDS011;11311;52.192;20.900;2022-09-09T01:36:40;16.88;;;11.23;;
22284;SDS011;11311;52.192;20.900;2022-09-09T01:39:11;17.83;;;11.30;;
22284;SDS011;11311;52.192;20.900;2022-09-09T01:41:42;18.38;;;11.35;;
22284;SDS011;11311;52.192;20.900;2022-09-09T01:44:13;15.77;;;10.57;;
22284;SDS011;11311;52.192;20.900;2022-09-09T01:46:44;15.95;;;10.98;;
22284;SDS011;11311;52.192;20.900;2022-09-09T01:49:17;22.42;;;10.90;;
22284;SDS011;11311;52.192;20.900;2022-09-09T01:51:47;15.48;;;10.30;;
22284;SDS011;11311;52.192;20.900;2022-09-09T01:54:18;18.20;;;10.52;;
22284;SDS011;11311;52.192;20.900;2022-09-09T01:56:53;13.65;;;10.55;;
22284;SDS011;11311;52.192;20.900;2022-09-09T01:59:30;16.48;;;10.60;;
22284;SDS011;11311;52.192;20.900;2022-09-09T02:02:10;14.40;;;10.50;;
22284;SDS011;11311;52.192;20.900;2022-09-09T02:04:51;14.93;;;10.48;;
22284;SDS011;11311;52.192;20.900;2022-09-09T02:07:29;18.00;;;11.13;;
22284;SDS011;11311;52.192;20.900;2022-09-09T02:10:09;16.17;;;10.57;;
22284;SDS011;11311;52.192;20.900;2022-09-09T02:12:49;26.63;;;12.65;;
22284;SDS011;11311;52.192;20.900;2022-09-09T02:15:28;27.98;;;20.55;;
22284;SDS011;11311;52.192;20.900;2022-09-09T02:18:00;231.88;;;169.13;;
22284;SDS011;11311;52.192;20.900;2022-09-09T02:20:35;438.15;;;284.23;;
22284;SDS011;11311;52.192;20.900;2022-09-09T02:23:06;141.52;;;120.47;;
22284;SDS011;11311;52.192;20.900;2022-09-09T02:25:37;133.63;;;112.75;;
22284;SDS011;11311;52.192;20.900;2022-09-09T02:28:19;240.40;;;174.35;;
22284;SDS011;11311;52.192;20.900;2022-09-09T02:30:48;138.18;;;89.57;;
22284;SDS011;11311;52.192;20.900;2022-09-09T02:33:28;86.05;;;61.17;;
22284;SDS011;11311;52.192;20.900;2022-09-09T02:36:02;47.70;;;31.10;;
22284;SDS011;11311;52.192;20.900;2022-09-09T02:38:36;31.92;;;19.67;;
22284;SDS011;11311;52.192;20.900;2022-09-09T02:41:11;24.67;;;17.77;;
22284;SDS011;11311;52.192;20.900;2022-09-09T02:43:41;29.35;;;19.05;;
22284;SDS011;11311;52.192;20.900;2022-09-09T02:46:17;23.92;;;17.27;;
22284;SDS011;11311;52.192;20.900;2022-09-09T02:48:58;24.30;;;16.45;;
22284;SDS011;11311;52.192;20.900;2022-09-09T02:51:35;20.73;;;12.13;;
22284;SDS011;11311;52.192;20.900;2022-09-09T02:54:10;20.55;;;14.95;;
22284;SDS011;11311;52.192;20.900;2022-09-09T02:56:46;21.17;;;14.30;;
22284;SDS011;11311;52.192;20.900;2022-09-09T02:59:20;20.70;;;15.23;;
22284;SDS011;11311;52.192;20.900;2022-09-09T03:01:51;20.73;;;14.18;;
22284;SDS011;11311;52.192;20.900;2022-09-09T03:04:21;20.33;;;14.50;;
22284;SDS011;11311;52.192;20.900;2022-09-09T03:06:51;18.98;;;12.23;;
22284;SDS011;11311;52.192;20.900;2022-09-09T03:09:21;17.80;;;13.55;;
22284;SDS011;11311;52.192;20.900;2022-09-09T03:11:49;18.25;;;13.57;;
22284;SDS011;11311;52.192;20.900;2022-09-09T03:14:21;19.83;;;12.95;;
22284;SDS011;11311;52.192;20.900;2022-09-09T03:16:54;15.95;;;11.20;;
22284;SDS011;11311;52.192;20.900;2022-09-09T03:19:24;13.93;;;10.98;;
22284;SDS011;11311;52.192;20.900;2022-09-09T03:21:53;21.77;;;12.77;;
22284;SDS011;11311;52.192;20.900;2022-09-09T03:24:22;19.20;;;12.32;;
22284;SDS011;11311;52.192;20.900;2022-09-09T03:26:51;13.77;;;11.32;;
22284;SDS011;11311;52.192;20.900;2022-09-09T03:29:21;12.98;;;10.50;;
22284;SDS011;11311;52.192;20.900;2022-09-09T03:31:53;13.15;;;11.73;;
22284;SDS011;11311;52.192;20.900;2022-09-09T03:34:22;14.40;;;10.38;;
22284;SDS011;11311;52.192;20.900;2022-09-09T03:36:51;14.23;;;11.60;;
22284;SDS011;11311;52.192;20.900;2022-09-09T03:39:20;13.82;;;11.18;;
22284;SDS011;11311;52.192;20.900;2022-09-09T03:41:49;13.70;;;11.40;;
22284;SDS011;11311;52.192;20.900;2022-09-09T03:44:18;16.80;;;12.10;;
22284;SDS011;11311;52.192;20.900;2022-09-09T03:46:48;14.88;;;11.35;;
22284;SDS011;11311;52.192;20.900;2022-09-09T03:49:16;16.38;;;11.88;;
22284;SDS011;11311;52.192;20.900;2022-09-09T03:51:47;14.07;;;10.50;;
22284;SDS011;11311;52.192;20.900;2022-09-09T03:54:16;17.60;;;10.68;;
22284;SDS011;11311;52.192;20.900;2022-09-09T03:56:44;11.35;;;10.13;;
22284;SDS011;11311;52.192;20.900;2022-09-09T03:59:14;12.10;;;10.13;;
22284;SDS011;11311;52.192;20.900;2022-09-09T04:01:42;11.43;;;10.20;;
22284;SDS011;11311;52.192;20.900;2022-09-09T04:04:13;14.57;;;11.15;;
22284;SDS011;11311;52.192;20.900;2022-09-09T04:06:42;14.32;;;10.90;;
22284;SDS011;11311;52.192;20.900;2022-09-09T04:09:12;12.85;;;10.68;;
22284;SDS011;11311;52.192;20.900;2022-09-09T04:11:41;13.68;;;10.45;;
22284;SDS011;11311;52.192;20.900;2022-09-09T04:14:10;12.63;;;10.75;;
22284;SDS011;11311;52.192;20.900;2022-09-09T04:16:39;11.57;;;10.38;;
22284;SDS011;11311;52.192;20.900;2022-09-09T04:19:11;12.45;;;10.73;;
22284;SDS011;11311;52.192;20.900;2022-09-09T04:21:43;17.00;;;12.30;;
22284;SDS011;11311;52.192;20.900;2022-09-09T04:24:12;13.85;;;10.75;;
22284;SDS011;11311;52.192;20.900;2022-09-09T04:26:43;14.02;;;12.07;;
22284;SDS011;11311;52.192;20.900;2022-09-09T04:29:12;15.43;;;10.65;;
22284;SDS011;11311;52.192;20.900;2022-09-09T04:31:41;13.65;;;11.48;;
22284;SDS011;11311;52.192;20.900;2022-09-09T04:34:10;12.15;;;10.52;;
22284;SDS011;11311;52.192;20.900;2022-09-09T04:36:39;14.80;;;10.93;;
22284;SDS011;11311;52.192;20.900;2022-09-09T04:39:10;13.93;;;12.13;;
22284;SDS011;11311;52.192;20.900;2022-09-09T04:41:39;12.68;;;10.82;;
22284;SDS011;11311;52.192;20.900;2022-09-09T04:44:09;13.02;;;11.38;;
22284;SDS011;11311;52.192;20.900;2022-09-09T04:46:38;12.45;;;11.15;;
22284;SDS011;11311;52.192;20.900;2022-09-09T04:49:09;14.45;;;12.43;;
22284;SDS011;11311;52.192;20.900;2022-09-09T04:51:42;13.05;;;10.88;;
22284;SDS011;11311;52.192;20.900;2022-09-09T04:54:13;14.07;;;9.68;;
22284;SDS011;11311;52.192;20.900;2022-09-09T04:56:44;11.05;;;9.95;;
22284;SDS011;11311;52.192;20.900;2022-09-09T04:59:13;14.43;;;9.80;;
22284;SDS011;11311;52.192;20.900;2022-09-09T05:01:45;10.98;;;9.13;;
22284;SDS011;11311;52.192;20.900;2022-09-09T05:04:14;12.35;;;10.00;;
22284;SDS011;11311;52.192;20.900;2022-09-09T05:06:43;14.10;;;10.15;;
22284;SDS011;11311;52.192;20.900;2022-09-09T05:09:15;10.05;;;9.05;;
22284;SDS011;11311;52.192;20.900;2022-09-09T05:11:46;12.50;;;9.25;;
22284;SDS011;11311;52.192;20.900;2022-09-09T05:14:30;11.48;;;9.02;;
22284;SDS011;11311;52.192;20.900;2022-09-09T05:17:00;9.90;;;8.77;;
22284;SDS011;11311;52.192;20.900;2022-09-09T05:19:29;13.07;;;9.60;;
22284;SDS011;11311;52.192;20.900;2022-09-09T05:21:58;13.38;;;9.65;;
22284;SDS011;11311;52.192;20.900;2022-09-09T05:24:37;11.68;;;9.20;;
22284;SDS011;11311;52.192;20.900;2022-09-09T05:27:06;12.38;;;9.40;;
22284;SDS011;11311;52.192;20.900;2022-09-09T05:29:40;11.05;;;9.85;;
22284;SDS011;11311;52.192;20.900;2022-09-09T05:32:12;13.15;;;9.85;;
22284;SDS011;11311;52.192;20.900;2022-09-09T05:34:45;13.15;;;9.75;;
22284;SDS011;11311;52.192;20.900;2022-09-09T05:37:15;13.03;;;10.03;;
22284;SDS011;11311;52.192;20.900;2022-09-09T05:39:45;9.65;;;8.65;;
22284;SDS011;11311;52.192;20.900;2022-09-09T05:42:15;10.27;;;9.25;;
22284;SDS011;11311;52.192;20.900;2022-09-09T05:44:44;10.43;;;8.50;;
22284;SDS011;11311;52.192;20.900;2022-09-09T05:47:13;14.70;;;10.05;;
22284;SDS011;11311;52.192;20.900;2022-09-09T05:49:42;17.10;;;10.50;;
22284;SDS011;11311;52.192;20.900;2022-09-09T05:52:10;10.68;;;9.00;;
22284;SDS011;11311;52.192;20.900;2022-09-09T05:54:39;13.10;;;8.88;;
22284;SDS011;11311;52.192;20.900;2022-09-09T05:57:10;11.63;;;9.57;;
22284;SDS011;11311;52.192;20.900;2022-09-09T05:59:39;13.27;;;9.32;;
22284;SDS011;11311;52.192;20.900;2022-09-09T06:02:08;11.75;;;10.18;;
22284;SDS011;11311;52.192;20.900;2022-09-09T06:04:37;15.63;;;9.82;;
22284;SDS011;11311;52.192;20.900;2022-09-09T06:07:05;13.13;;;9.40;;
22284;SDS011;11311;52.192;20.900;2022-09-09T06:09:35;13.02;;;10.27;;
22284;SDS011;11311;52.192;20.900;2022-09-09T06:12:04;11.25;;;9.63;;
22284;SDS011;11311;52.192;20.900;2022-09-09T06:14:36;13.75;;;9.60;;
22284;SDS011;11311;52.192;20.900;2022-09-09T06:17:10;11.75;;;9.15;;
22284;SDS011;11311;52.192;20.900;2022-09-09T06:19:38;11.82;;;9.57;;
22284;SDS011;11311;52.192;20.900;2022-09-09T06:22:07;10.35;;;9.32;;
22284;SDS011;11311;52.192;20.900;2022-09-09T06:24:40;10.77;;;8.98;;
22284;SDS011;11311;52.192;20.900;2022-09-09T06:27:09;10.00;;;9.02;;
22284;SDS011;11311;52.192;20.900;2022-09-09T06:29:42;11.23;;;9.93;;
22284;SDS011;11311;52.192;20.900;2022-09-09T06:32:12;14.68;;;10.35;;
22284;SDS011;11311;52.192;20.900;2022-09-09T06:34:40;14.75;;;10.55;;
22284;SDS011;11311;52.192;20.900;2022-09-09T06:37:09;11.70;;;10.13;;
22284;SDS011;11311;52.192;20.900;2022-09-09T06:39:45;10.23;;;9.23;;
22284;SDS011;11311;52.192;20.900;2022-09-09T06:42:17;10.50;;;9.27;;
22284;SDS011;11311;52.192;20.900;2022-09-09T06:45:22;10.18;;;9.02;;
22284;SDS011;11311;52.192;20.900;2022-09-09T06:47:57;12.68;;;9.43;;
22284;SDS011;11311;52.192;20.900;2022-09-09T06:50:26;11.57;;;10.37;;
22284;SDS011;11311;52.192;20.900;2022-09-09T06:52:55;12.95;;;10.27;;
22284;SDS011;11311;52.192;20.900;2022-09-09T06:55:24;13.38;;;10.63;;
22284;SDS011;11311;52.192;20.900;2022-09-09T06:57:53;11.35;;;10.18;;
22284;SDS011;11311;52.192;20.900;2022-09-09T07:00:24;13.67;;;10.13;;
22284;SDS011;11311;52.192;20.900;2022-09-09T07:02:53;10.68;;;8.50;;
22284;SDS011;11311;52.192;20.900;2022-09-09T07:05:22;11.68;;;9.60;;
22284;SDS011;11311;52.192;20.900;2022-09-09T07:07:52;10.18;;;9.15;;
22284;SDS011;11311;52.192;20.900;2022-09-09T07:10:22;13.43;;;9.48;;
22284;SDS011;11311;52.192;20.900;2022-09-09T07:12:51;12.02;;;10.48;;
22284;SDS011;11311;52.192;20.900;2022-09-09T07:15:24;14.43;;;10.77;;
22284;SDS011;11311;52.192;20.900;2022-09-09T07:17:54;13.23;;;11.07;;
22284;SDS011;11311;52.192;20.900;2022-09-09T07:20:23;14.43;;;10.73;;
22284;SDS011;11311;52.192;20.900;2022-09-09T07:22:54;13.70;;;10.70;;
22284;SDS011;11311;52.192;20.900;2022-09-09T07:25:23;18.45;;;10.45;;
22284;SDS011;11311;52.192;20.900;2022-09-09T07:27:53;14.75;;;12.07;;
22284;SDS011;11311;52.192;20.900;2022-09-09T07:30:22;14.27;;;11.13;;
22284;SDS011;11311;52.192;20.900;2022-09-09T07:32:56;13.63;;;10.70;;
22284;SDS011;11311;52.192;20.900;2022-09-09T07:35:26;14.75;;;9.80;;
22284;SDS011;11311;52.192;20.900;2022-09-09T07:37:56;15.27;;;11.55;;
22284;SDS011;11311;52.192;20.900;2022-09-09T07:40:25;14.40;;;10.85;;
22284;SDS011;11311;52.192;20.900;2022-09-09T07:42:53;15.05;;;11.40;;
22284;SDS011;11311;52.192;20.900;2022-09-09T07:45:23;13.82;;;11.38;;
22284;SDS011;11311;52.192;20.900;2022-09-09T07:47:52;13.48;;;11.55;;
22284;SDS011;11311;52.192;20.900;2022-09-09T07:50:22;15.32;;;12.68;;
22284;SDS011;11311;52.192;20.900;2022-09-09T07:52:51;15.20;;;12.38;;
22284;SDS011;11311;52.192;20.900;2022-09-09T07:55:20;17.08;;;12.65;;
22284;SDS011;11311;52.192;20.900;2022-09-09T07:57:52;22.10;;;12.50;;
22284;SDS011;11311;52.192;20.900;2022-09-09T08:00:22;18.55;;;13.13;;
22284;SDS011;11311;52.192;20.900;2022-09-09T08:02:55;17.02;;;14.15;;
22284;SDS011;11311;52.192;20.900;2022-09-09T08:05:25;19.17;;;14.02;;
22284;SDS011;11311;52.192;20.900;2022-09-09T08:07:54;18.52;;;13.57;;
22284;SDS011;11311;52.192;20.900;2022-09-09T08:10:24;23.15;;;15.40;;
22284;SDS011;11311;52.192;20.900;2022-09-09T08:12:54;18.63;;;13.10;;
22284;SDS011;11311;52.192;20.900;2022-09-09T08:15:43;21.90;;;14.75;;
22284;SDS011;11311;52.192;20.900;2022-09-09T08:18:12;21.98;;;16.45;;
22284;SDS011;11311;52.192;20.900;2022-09-09T08:20:43;18.33;;;15.10;;
22284;SDS011;11311;52.192;20.900;2022-09-09T08:23:11;20.55;;;15.57;;
22284;SDS011;11311;52.192;20.900;2022-09-09T08:25:40;20.77;;;14.77;;
22284;SDS011;11311;52.192;20.900;2022-09-09T08:28:08;23.65;;;16.38;;
22284;SDS011;11311;52.192;20.900;2022-09-09T08:30:38;22.20;;;16.20;;
22284;SDS011;11311;52.192;20.900;2022-09-09T08:33:09;23.02;;;16.60;;
22284;SDS011;11311;52.192;20.900;2022-09-09T08:35:37;23.08;;;15.95;;
22284;SDS011;11311;52.192;20.900;2022-09-09T08:38:07;22.95;;;16.05;;
22284;SDS011;11311;52.192;20.900;2022-09-09T08:40:38;20.15;;;15.63;;
22284;SDS011;11311;52.192;20.900;2022-09-09T08:43:11;22.38;;;15.68;;
22284;SDS011;11311;52.192;20.900;2022-09-09T08:45:42;20.75;;;15.90;;
22284;SDS011;11311;52.192;20.900;2022-09-09T08:48:22;23.55;;;15.57;;
22284;SDS011;11311;52.192;20.900;2022-09-09T08:51:01;20.25;;;15.05;;
22284;SDS011;11311;52.192;20.900;2022-09-09T08:53:36;23.90;;;16.67;;
22284;SDS011;11311;52.192;20.900;2022-09-09T08:56:09;19.58;;;16.02;;
22284;SDS011;11311;52.192;20.900;2022-09-09T08:58:44;21.25;;;17.20;;
22284;SDS011;11311;52.192;20.900;2022-09-09T09:01:27;21.17;;;15.63;;
22284;SDS011;11311;52.192;20.900;2022-09-09T09:04:06;23.33;;;18.15;;
22284;SDS011;11311;52.192;20.900;2022-09-09T09:06:46;24.15;;;17.52;;
22284;SDS011;11311;52.192;20.900;2022-09-09T09:09:23;25.40;;;17.63;;
22284;SDS011;11311;52.192;20.900;2022-09-09T09:11:58;25.00;;;16.48;;
22284;SDS011;11311;52.192;20.900;2022-09-09T09:14:35;28.08;;;19.52;;
22284;SDS011;11311;52.192;20.900;2022-09-09T09:17:09;27.02;;;19.88;;
22284;SDS011;11311;52.192;20.900;2022-09-09T09:19:41;28.45;;;19.95;;
22284;SDS011;11311;52.192;20.900;2022-09-09T09:22:14;28.77;;;18.48;;
22284;SDS011;11311;52.192;20.900;2022-09-09T09:24:52;27.08;;;20.40;;
22284;SDS011;11311;52.192;20.900;2022-09-09T09:27:27;23.65;;;19.05;;
22284;SDS011;11311;52.192;20.900;2022-09-09T09:30:01;31.30;;;21.10;;
22284;SDS011;11311;52.192;20.900;2022-09-09T09:32:53;26.05;;;19.13;;
22284;SDS011;11311;52.192;20.900;2022-09-09T09:35:24;32.28;;;19.67;;
22284;SDS011;11311;52.192;20.900;2022-09-09T09:37:53;30.17;;;22.02;;
22284;SDS011;11311;52.192;20.900;2022-09-09T09:40:49;25.63;;;20.50;;
22284;SDS011;11311;52.192;20.900;2022-09-09T09:43:20;27.20;;;19.85;;
22284;SDS011;11311;52.192;20.900;2022-09-09T09:45:51;30.67;;;20.95;;
22284;SDS011;11311;52.192;20.900;2022-09-09T09:48:40;27.08;;;20.80;;
22284;SDS011;11311;52.192;20.900;2022-09-09T09:51:09;28.80;;;18.83;;
22284;SDS011;11311;52.192;20.900;2022-09-09T09:53:41;28.38;;;21.20;;
22284;SDS011;11311;52.192;20.900;2022-09-09T09:56:13;31.13;;;20.33;;
22284;SDS011;11311;52.192;20.900;2022-09-09T09:58:48;27.55;;;19.52;;
22284;SDS011;11311;52.192;20.900;2022-09-09T10:01:22;40.15;;;21.30;;
22284;SDS011;11311;52.192;20.900;2022-09-09T10:03:54;33.58;;;21.63;;
22284;SDS011;11311;52.192;20.900;2022-09-09T10:06:29;28.77;;;19.85;;
22284;SDS011;11311;52.192;20.900;2022-09-09T10:09:01;33.65;;;22.35;;
22284;SDS011;11311;52.192;20.900;2022-09-09T10:11:37;32.75;;;21.13;;
22284;SDS011;11311;52.192;20.900;2022-09-09T10:14:13;41.33;;;23.87;;
22284;SDS011;11311;52.192;20.900;2022-09-09T10:16:50;42.03;;;24.67;;
22284;SDS011;11311;52.192;20.900;2022-09-09T10:19:27;36.72;;;22.65;;
22284;SDS011;11311;52.192;20.900;2022-09-09T10:22:05;32.90;;;23.60;;
22284;SDS011;11311;52.192;20.900;2022-09-09T10:24:49;34.20;;;23.27;;
22284;SDS011;11311;52.192;20.900;2022-09-09T10:27:47;40.38;;;23.77;;
22284;SDS011;11311;52.192;20.900;2022-09-09T10:30:33;37.17;;;23.00;;
22284;SDS011;11311;52.192;20.900;2022-09-09T10:33:12;39.60;;;25.08;;
22284;SDS011;11311;52.192;20.900;2022-09-09T10:35:47;35.47;;;24.05;;
22284;SDS011;11311;52.192;20.900;2022-09-09T10:38:21;38.78;;;26.13;;
22284;SDS011;11311;52.192;20.900;2022-09-09T10:41:01;42.05;;;24.92;;
22284;SDS011;11311;52.192;20.900;2022-09-09T10:43:42;38.58;;;25.92;;
22284;SDS011;11311;52.192;20.900;2022-09-09T10:46:25;40.38;;;26.42;;
22284;SDS011;11311;52.192;20.900;2022-09-09T10:49:02;52.83;;;28.70;;
22284;SDS011;11311;52.192;20.900;2022-09-09T10:51:38;41.90;;;26.90;;
22284;SDS011;11311;52.192;20.900;2022-09-09T10:54:17;38.95;;;25.38;;
22284;SDS011;11311;52.192;20.900;2022-09-09T10:56:54;48.15;;;26.98;;
22284;SDS011;11311;52.192;20.900;2022-09-09T10:59:27;45.70;;;28.92;;
22284;SDS011;11311;52.192;20.900;2022-09-09T11:01:58;46.53;;;27.10;;
22284;SDS011;11311;52.192;20.900;2022-09-09T11:04:30;47.40;;;28.42;;
22284;SDS011;11311;52.192;20.900;2022-09-09T11:07:05;43.90;;;27.35;;
22284;SDS011;11311;52.192;20.900;2022-09-09T11:09:42;43.70;;;27.38;;
22284;SDS011;11311;52.192;20.900;2022-09-09T11:12:19;45.57;;;28.33;;
22284;SDS011;11311;52.192;20.900;2022-09-09T11:14:55;49.72;;;28.33;;
22284;SDS011;11311;52.192;20.900;2022-09-09T11:17:33;43.97;;;27.27;;
22284;SDS011;11311;52.192;20.900;2022-09-09T11:20:10;43.15;;;28.13;;
22284;SDS011;11311;52.192;20.900;2022-09-09T11:22:44;47.10;;;28.10;;
22284;SDS011;11311;52.192;20.900;2022-09-09T11:25:18;44.35;;;28.52;;
22284;SDS011;11311;52.192;20.900;2022-09-09T11:27:54;55.53;;;31.15;;
22284;SDS011;11311;52.192;20.900;2022-09-09T11:30:42;41.03;;;28.15;;
22284;SDS011;11311;52.192;20.900;2022-09-09T11:36:26;47.58;;;29.48;;
22284;SDS011;11311;52.192;20.900;2022-09-09T11:39:12;43.60;;;27.85;;
22284;SDS011;11311;52.192;20.900;2022-09-09T11:42:05;45.28;;;30.13;;
22284;SDS011;11311;52.192;20.900;2022-09-09T11:44:36;45.25;;;30.15;;
22284;SDS011;11311;52.192;20.900;2022-09-09T11:47:16;48.22;;;30.63;;
22284;SDS011;11311;52.192;20.900;2022-09-09T11:49:50;47.53;;;30.90;;
22284;SDS011;11311;52.192;20.900;2022-09-09T11:52:23;50.63;;;33.30;;
22284;SDS011;11311;52.192;20.900;2022-09-09T11:55:24;46.53;;;32.42;;
22284;SDS011;11311;52.192;20.900;2022-09-09T11:57:57;55.67;;;32.72;;
22284;SDS011;11311;52.192;20.900;2022-09-09T12:00:28;52.42;;;34.17;;
22284;SDS011;11311;52.192;20.900;2022-09-09T12:03:04;58.22;;;35.85;;
22284;SDS011;11311;52.192;20.900;2022-09-09T12:05:37;52.58;;;33.00;;
22284;SDS011;11311;52.192;20.900;2022-09-09T12:08:07;52.10;;;31.80;;
22284;SDS011;11311;52.192;20.900;2022-09-09T12:10:38;54.85;;;33.65;;
22284;SDS011;11311;52.192;20.900;2022-09-09T12:13:09;58.97;;;36.00;;
22284;SDS011;11311;52.192;20.900;2022-09-09T12:15:47;54.08;;;34.80;;
22284;SDS011;11311;52.192;20.900;2022-09-09T12:18:21;60.60;;;36.75;;
22284;SDS011;11311;52.192;20.900;2022-09-09T12:20:54;67.43;;;34.58;;
22284;SDS011;11311;52.192;20.900;2022-09-09T12:23:30;60.83;;;37.13;;
22284;SDS011;11311;52.192;20.900;2022-09-09T12:26:07;56.80;;;35.25;;
22284;SDS011;11311;52.192;20.900;2022-09-09T12:29:02;63.72;;;38.03;;
22284;SDS011;11311;52.192;20.900;2022-09-09T12:31:36;61.28;;;37.63;;
22284;SDS011;11311;52.192;20.900;2022-09-09T12:34:15;54.92;;;36.55;;
22284;SDS011;11311;52.192;20.900;2022-09-09T12:36:47;60.08;;;35.67;;
22284;SDS011;11311;52.192;20.900;2022-09-09T12:39:22;56.00;;;35.40;;
22284;SDS011;11311;52.192;20.900;2022-09-09T12:41:56;60.15;;;37.92;;
22284;SDS011;11311;52.192;20.900;2022-09-09T12:44:25;51.13;;;33.75;;
22284;SDS011;11311;52.192;20.900;2022-09-09T12:49:26;65.72;;;35.17;;
22284;SDS011;11311;52.192;20.900;2022-09-09T12:51:58;58.30;;;35.53;;
22284;SDS011;11311;52.192;20.900;2022-09-09T12:54:28;54.42;;;34.30;;
22284;SDS011;11311;52.192;20.900;2022-09-09T12:56:57;57.60;;;36.90;;
22284;SDS011;11311;52.192;20.900;2022-09-09T12:59:26;62.15;;;36.47;;
22284;SDS011;11311;52.192;20.900;2022-09-09T13:02:11;57.33;;;37.88;;
22284;SDS011;11311;52.192;20.900;2022-09-09T13:04:47;56.88;;;36.60;;
22284;SDS011;11311;52.192;20.900;2022-09-09T13:07:17;52.42;;;36.70;;
22284;SDS011;11311;52.192;20.900;2022-09-09T13:09:47;67.07;;;40.70;;
22284;SDS011;11311;52.192;20.900;2022-09-09T13:12:18;54.35;;;34.83;;
22284;SDS011;11311;52.192;20.900;2022-09-09T13:14:50;58.95;;;37.80;;
22284;SDS011;11311;52.192;20.900;2022-09-09T13:17:21;61.75;;;39.30;;
22284;SDS011;11311;52.192;20.900;2022-09-09T13:19:52;65.68;;;39.63;;
22284;SDS011;11311;52.192;20.900;2022-09-09T13:22:26;66.35;;;38.70;;
22284;SDS011;11311;52.192;20.900;2022-09-09T13:25:00;60.55;;;36.97;;
22284;SDS011;11311;52.192;20.900;2022-09-09T13:27:32;55.85;;;38.75;;
22284;SDS011;11311;52.192;20.900;2022-09-09T13:32:59;58.25;;;36.85;;
22284;SDS011;11311;52.192;20.900;2022-09-09T13:35:30;58.45;;;39.25;;
22284;SDS011;11311;52.192;20.900;2022-09-09T13:38:06;58.97;;;38.92;;
22284;SDS011;11311;52.192;20.900;2022-09-09T13:40:37;60.95;;;38.90;;
22284;SDS011;11311;52.192;20.900;2022-09-09T13:43:10;60.53;;;37.28;;
22284;SDS011;11311;52.192;20.900;2022-09-09T13:45:52;69.10;;;41.35;;
22284;SDS011;11311;52.192;20.900;2022-09-09T13:48:21;58.92;;;37.78;;
22284;SDS011;11311;52.192;20.900;2022-09-09T13:50:55;64.53;;;39.40;;
22284;SDS011;11311;52.192;20.900;2022-09-09T13:53:25;68.28;;;39.47;;
22284;SDS011;11311;52.192;20.900;2022-09-09T13:55:54;68.63;;;39.42;;
22284;SDS011;11311;52.192;20.900;2022-09-09T13:58:23;64.65;;;39.00;;
22284;SDS011;11311;52.192;20.900;2022-09-09T14:00:53;66.55;;;39.30;;
22284;SDS011;11311;52.192;20.900;2022-09-09T14:03:22;72.25;;;38.97;;
22284;SDS011;11311;52.192;20.900;2022-09-09T14:05:51;77.75;;;39.35;;
22284;SDS011;11311;52.192;20.900;2022-09-09T14:08:23;74.87;;;42.20;;
22284;SDS011;11311;52.192;20.900;2022-09-09T14:10:53;72.68;;;38.92;;
22284;SDS011;11311;52.192;20.900;2022-09-09T14:13:25;80.30;;;40.67;;
22284;SDS011;11311;52.192;20.900;2022-09-09T14:15:54;78.13;;;40.67;;
22284;SDS011;11311;52.192;20.900;2022-09-09T14:18:23;79.87;;;42.50;;
22284;SDS011;11311;52.192;20.900;2022-09-09T14:20:52;66.28;;;39.40;;
22284;SDS011;11311;52.192;20.900;2022-09-09T14:23:22;63.55;;;38.50;;
22284;SDS011;11311;52.192;20.900;2022-09-09T14:25:51;65.78;;;36.75;;
22284;SDS011;11311;52.192;20.900;2022-09-09T14:28:19;61.05;;;36.72;;
22284;SDS011;11311;52.192;20.900;2022-09-09T14:31:08;62.00;;;35.72;;
22284;SDS011;11311;52.192;20.900;2022-09-09T14:33:37;53.00;;;33.63;;
22284;SDS011;11311;52.192;20.900;2022-09-09T14:36:06;63.75;;;36.40;;
22284;SDS011;11311;52.192;20.900;2022-09-09T14:38:37;54.53;;;34.10;;
22284;SDS011;11311;52.192;20.900;2022-09-09T14:41:07;59.15;;;33.05;;
22284;SDS011;11311;52.192;20.900;2022-09-09T14:43:37;58.97;;;34.65;;
22284;SDS011;11311;52.192;20.900;2022-09-09T14:46:05;61.67;;;34.65;;
22284;SDS011;11311;52.192;20.900;2022-09-09T14:48:35;59.60;;;35.90;;
22284;SDS011;11311;52.192;20.900;2022-09-09T14:51:09;56.67;;;31.42;;
22284;SDS011;11311;52.192;20.900;2022-09-09T14:53:41;57.15;;;30.05;;
22284;SDS011;11311;52.192;20.900;2022-09-09T14:56:14;60.60;;;33.22;;